Terminal Aerodrome Forecast
Issued by NWS Lake Charles, LA

Home | Current Version | Previous Version | Text Only | Print | Product List | Glossary On
Versions: 1 2 3 4 5 6 7 8 9 10 11 12 13 14
000
FTUS44 KLCH 011122
TAFAEX
TAF
KAEX 011122Z 0112/0212 00000KT P6SM FEW025 BKN250
      TEMPO 0112/0113 4SM BR
     FM011500 VRB05KT P6SM SCT035 BKN250
     FM011800 18006KT P6SM VCSH SCT050 BKN200
     FM020100 VRB03KT P6SM FEW050 BKN250 PROB30 0202/0208 -SHRA
      SCT035 SCT250=

USA.gov is the U.S. government's official web portal to all federal, state and local government web resources and services.